createdAt,value
2022-11-25T00:01:21.722Z,0.50
2022-11-25T00:06:49.637Z,0.50
2022-11-25T00:12:18.139Z,0.60
2022-11-25T00:17:47.055Z,0.40
2022-11-25T00:23:17.916Z,0.50
2022-11-25T00:28:48.159Z,1.53
2022-11-25T00:34:16.662Z,0.83
2022-11-25T00:39:45.267Z,0.50
2022-11-25T00:45:14.289Z,0.40
2022-11-25T00:50:46.794Z,0.40
2022-11-25T00:56:18.158Z,0.40
2022-11-25T01:01:46.784Z,0.47
2022-11-25T01:07:21.487Z,0.60
2022-11-25T01:12:53.207Z,0.77
2022-11-25T01:18:32.711Z,0.47
2022-11-25T01:24:06.887Z,0.50
2022-11-25T01:29:42.002Z,0.60
2022-11-25T01:35:30.131Z,0.40
2022-11-25T01:40:59.891Z,0.40
2022-11-25T01:46:36.459Z,0.40
2022-11-25T01:52:24.469Z,1.70
2022-11-25T01:58:10.425Z,0.50
2022-11-25T02:03:45.984Z,0.50
2022-11-25T02:09:17.864Z,0.40
2022-11-25T02:14:50.132Z,0.87
2022-11-25T02:20:28.325Z,0.50
2022-11-25T02:26:02.507Z,1.57
2022-11-25T02:31:33.974Z,0.40
2022-11-25T02:37:04.542Z,0.40
2022-11-25T02:42:39.042Z,0.40
2022-11-25T02:48:08.787Z,0.40
2022-11-25T02:53:39.102Z,0.70
2022-11-25T02:59:07.920Z,0.40
2022-11-25T03:04:37.440Z,0.40
2022-11-25T03:10:06.309Z,0.40
2022-11-25T03:15:37.213Z,0.40
2022-11-25T03:21:05.307Z,0.40
2022-11-25T03:26:33.252Z,0.50
2022-11-25T03:32:04.185Z,0.40
2022-11-25T03:37:34.774Z,0.40
2022-11-25T03:43:02.830Z,0.40
2022-11-25T03:48:30.796Z,0.40
2022-11-25T03:53:58.805Z,0.40
2022-11-25T03:59:26.792Z,0.40
2022-11-25T04:04:54.606Z,0.77
2022-11-25T04:10:23.491Z,0.40
2022-11-25T04:15:52.449Z,0.90
2022-11-25T04:21:21.578Z,0.40
2022-11-25T04:26:49.716Z,0.60
2022-11-25T04:32:19.135Z,0.40
2022-11-25T04:37:47.230Z,1.90
2022-11-25T04:43:16.293Z,0.40
2022-11-25T04:48:50.751Z,0.50
2022-11-25T04:54:19.917Z,0.40
2022-11-25T04:59:49.118Z,0.40
2022-11-25T05:05:17.217Z,0.50
2022-11-25T05:10:46.017Z,0.50
2022-11-25T05:16:14.425Z,0.40
2022-11-25T05:21:42.851Z,0.40
2022-11-25T05:27:11.562Z,0.60
2022-11-25T05:32:40.718Z,0.40
2022-11-25T05:38:11.073Z,0.40
2022-11-25T05:43:39.873Z,0.40
2022-11-25T05:49:07.732Z,0.50
2022-11-25T05:54:35.837Z,0.50
2022-11-25T06:00:05.871Z,0.40
2022-11-25T06:05:45.909Z,0.40
2022-11-25T06:11:17.078Z,0.40
2022-11-25T06:16:45.941Z,0.40
2022-11-25T06:22:28.760Z,0.40
2022-11-25T06:28:12.339Z,0.60
2022-11-25T06:33:45.862Z,0.60
2022-11-25T06:39:14.261Z,0.60
2022-11-25T06:44:42.403Z,0.40
2022-11-25T06:50:10.744Z,1.00
2022-11-25T06:55:39.142Z,0.67
2022-11-25T07:01:19.421Z,0.70
2022-11-25T07:06:48.871Z,0.40
2022-11-25T07:12:17.021Z,0.40
2022-11-25T07:17:46.463Z,0.60
2022-11-25T07:23:14.535Z,0.40
2022-11-25T07:28:44.312Z,0.50
2022-11-25T07:34:17.955Z,0.40
2022-11-25T07:39:46.072Z,0.40
2022-11-25T07:45:14.299Z,0.50
2022-11-25T07:50:46.984Z,0.50
2022-11-25T07:56:16.245Z,0.40
2022-11-25T08:01:44.828Z,0.70
2022-11-25T08:07:12.979Z,0.50
2022-11-25T08:12:41.063Z,1.83
2022-11-25T08:18:09.159Z,0.70
2022-11-25T08:23:39.169Z,0.80
2022-11-25T08:29:07.996Z,0.90
2022-11-25T08:34:36.190Z,0.70
2022-11-25T08:40:10.688Z,0.50
2022-11-25T08:45:40.203Z,0.40
2022-11-25T08:51:11.145Z,1.07
2022-11-25T08:56:39.337Z,0.80
2022-11-25T09:02:08.571Z,0.50
2022-11-25T09:07:36.730Z,0.87
2022-11-25T09:13:05.068Z,0.40
2022-11-25T09:18:35.423Z,0.40
2022-11-25T09:24:03.676Z,0.60
2022-11-25T09:29:31.771Z,0.47
2022-11-25T09:34:59.784Z,6.13
2022-11-25T09:40:30.662Z,2.63
2022-11-25T09:46:42.408Z,0.40
2022-11-25T09:52:14.056Z,0.40
2022-11-25T09:58:12.790Z,0.40
2022-11-25T10:03:48.000Z,1.40
2022-11-25T10:09:18.242Z,0.97
2022-11-25T10:14:50.178Z,0.57
2022-11-25T10:20:21.401Z,0.50
2022-11-25T10:25:53.857Z,0.70
2022-11-25T10:31:35.590Z,1.10
2022-11-25T10:37:07.053Z,0.97
2022-11-25T10:42:37.026Z,0.50
2022-11-25T10:48:22.584Z,0.70
2022-11-25T10:54:27.617Z,0.70
2022-11-25T10:59:58.394Z,0.90
2022-11-25T11:05:29.840Z,0.80
2022-11-25T11:11:16.078Z,1.10
2022-11-25T11:16:46.228Z,0.70
2022-11-25T11:22:24.229Z,0.90
2022-11-25T11:27:52.569Z,0.73
2022-11-25T11:33:48.660Z,0.80
2022-11-25T11:39:46.933Z,0.90
2022-11-25T11:45:23.871Z,1.27
2022-11-25T11:51:03.816Z,1.20
2022-11-25T11:56:44.637Z,3.23
2022-11-25T12:02:40.813Z,1.47
2022-11-25T12:08:39.967Z,1.47
2022-11-25T12:14:31.430Z,1.73
2022-11-25T12:20:25.776Z,0.90
2022-11-25T12:25:59.157Z,1.50
2022-11-25T12:31:35.475Z,2.30
2022-11-25T12:37:15.417Z,1.80
2022-11-25T12:42:44.898Z,2.13
2022-11-25T12:48:17.345Z,2.50
2022-11-25T12:54:16.018Z,2.10
2022-11-25T13:00:40.056Z,2.30
2022-11-25T13:06:03.275Z,2.60
2022-11-25T13:11:31.893Z,2.03
2022-11-25T13:17:01.352Z,1.93
2022-11-25T13:22:29.901Z,2.80
2022-11-25T13:28:00.145Z,3.37
2022-11-25T13:33:28.158Z,2.30
2022-11-25T13:38:56.228Z,7.20
2022-11-25T13:44:34.974Z,2.53
2022-11-25T13:50:10.733Z,2.53
2022-11-25T13:55:42.301Z,2.63
2022-11-25T14:01:29.949Z,5.90
2022-11-25T14:06:58.497Z,3.50
2022-11-25T14:12:35.401Z,4.97
2022-11-25T14:18:51.187Z,3.70
2022-11-25T14:24:43.630Z,4.60
2022-11-25T14:30:12.180Z,8.50
2022-11-25T14:35:52.410Z,4.57
2022-11-25T14:41:25.561Z,5.50
2022-11-25T14:46:55.572Z,4.37
2022-11-25T14:52:37.407Z,4.57
2022-11-25T14:58:05.516Z,4.53
2022-11-25T15:03:34.088Z,28.60
2022-11-25T15:09:02.625Z,7.10
2022-11-25T15:14:36.475Z,8.20
2022-11-25T15:20:15.228Z,6.20
2022-11-25T15:25:53.839Z,13.17
2022-11-25T15:31:25.206Z,11.30
2022-11-25T15:36:54.685Z,13.33
2022-11-25T15:42:28.396Z,24.07
2022-11-25T15:47:57.699Z,43.70
2022-11-25T15:53:32.937Z,62.17
2022-11-25T15:59:02.103Z,83.40
2022-11-25T16:04:30.276Z,82.20
2022-11-25T16:09:58.365Z,92.03
2022-11-25T16:15:43.773Z,115.17
2022-11-25T16:21:18.013Z,94.10
2022-11-25T16:27:17.503Z,95.87
2022-11-25T16:32:45.859Z,95.83
2022-11-25T16:38:13.948Z,87.50
2022-11-25T16:43:42.030Z,88.60
2022-11-25T16:49:14.791Z,91.03
2022-11-25T16:54:43.207Z,100.50
2022-11-25T17:00:17.989Z,88.82
2022-11-25T17:05:46.951Z,97.50
2022-11-25T17:11:44.942Z,93.67
2022-11-25T17:17:24.837Z,86.87
2022-11-25T17:22:54.143Z,93.80
2022-11-25T17:28:22.427Z,83.97
2022-11-25T17:33:50.852Z,84.03
2022-11-25T17:39:19.032Z,91.87
2022-11-25T17:44:51.348Z,78.40
2022-11-25T17:50:23.503Z,77.73
2022-11-25T17:55:53.207Z,83.80
2022-11-25T18:01:21.548Z,78.93
2022-11-25T18:06:50.086Z,84.40
2022-11-25T18:12:27.626Z,77.37
2022-11-25T18:18:04.725Z,79.60
2022-11-25T18:23:32.904Z,75.30
2022-11-25T18:29:02.534Z,73.70
2022-11-25T18:34:31.164Z,81.07
2022-11-25T18:39:59.381Z,74.43
